createdAt,value
2022-11-04T00:03:12.288Z,5.4
2022-11-04T00:18:21.851Z,5
2022-11-04T00:33:31.358Z,4.8
2022-11-04T00:48:42.033Z,5.3
2022-11-04T01:03:51.557Z,4.5
2022-11-04T01:19:00.771Z,4.2
2022-11-04T01:34:10.185Z,5.2
2022-11-04T01:49:19.692Z,5.3
2022-11-04T02:04:28.905Z,4.7
2022-11-04T02:19:38.584Z,4.2
2022-11-04T02:34:48.674Z,3.5
2022-11-04T02:49:58.538Z,3.3
2022-11-04T03:05:07.724Z,2.8
2022-11-04T03:20:16.449Z,1.7
2022-11-04T03:35:25.829Z,1.5
2022-11-04T03:50:35.492Z,1.8
2022-11-04T04:05:45.183Z,2.5
2022-11-04T04:20:53.932Z,3.9
2022-11-04T04:36:02.925Z,4.7
2022-11-04T04:51:12.819Z,5.1
2022-11-04T05:06:22.417Z,5.9
2022-11-04T05:21:32.130Z,6.2
2022-11-04T05:36:42.677Z,6.4
2022-11-04T05:51:52.527Z,7.1
2022-11-04T06:07:01.877Z,8.3
2022-11-04T06:22:11.606Z,7.7
2022-11-04T06:37:20.866Z,7.8
2022-11-04T06:52:30.682Z,7
2022-11-04T07:07:40.974Z,7.3
2022-11-04T07:22:51.433Z,7.9
2022-11-04T07:38:01.675Z,7
2022-11-04T07:53:12.038Z,6.2
2022-11-04T08:08:22.319Z,4.6
2022-11-04T08:23:31.833Z,6.1
2022-11-04T08:38:43.955Z,5.7
2022-11-04T08:53:53.583Z,5.1
2022-11-04T09:09:03.430Z,5.6
2022-11-04T09:24:13.073Z,5.5
2022-11-04T09:39:23.156Z,5.2
2022-11-04T09:54:33.470Z,5.3
2022-11-04T10:09:44.730Z,5
2022-11-04T10:24:57.637Z,5.5
2022-11-04T10:40:08.321Z,5
2022-11-04T10:55:20.731Z,5.4
2022-11-04T11:10:31.077Z,5.2
2022-11-04T11:25:40.636Z,5.4
2022-11-04T11:41:24.699Z,5.3
2022-11-04T11:57:13.560Z,6.4
2022-11-04T12:12:34.140Z,4.3
2022-11-04T12:27:44.200Z,4.4
2022-11-04T12:42:53.690Z,3.9
2022-11-04T12:58:03.444Z,4.3
2022-11-04T13:13:13.420Z,3.6
2022-11-04T13:28:23.414Z,3.2
2022-11-04T13:43:33.091Z,3.3
2022-11-04T13:58:47.312Z,3.6
2022-11-04T14:13:56.796Z,3.7
2022-11-04T14:29:06.054Z,3.8
2022-11-04T14:44:15.415Z,3.7
2022-11-04T14:59:25.218Z,3.7
2022-11-04T15:14:34.926Z,3.7
2022-11-04T15:29:44.827Z,4.4
2022-11-04T15:44:54.287Z,6.3
2022-11-04T16:00:04.348Z,7.8
2022-11-04T16:15:14.862Z,5.9
2022-11-04T16:30:28.218Z,4.9
2022-11-04T16:45:40.904Z,4.7
2022-11-04T17:00:50.831Z,5.1
2022-11-04T17:16:01.672Z,5.8
2022-11-04T17:31:11.155Z,6.9
2022-11-04T17:46:20.852Z,8.3
2022-11-04T18:01:30.478Z,12.3
2022-11-04T18:16:41.758Z,8.6
2022-11-04T18:31:51.198Z,9.1
2022-11-04T18:47:01.230Z,8.2
2022-11-04T19:02:12.481Z,9
2022-11-04T19:17:23.032Z,9
2022-11-04T19:32:32.046Z,7.7
2022-11-04T19:47:41.315Z,7.8
2022-11-04T20:02:51.428Z,7.6
2022-11-04T20:18:01.831Z,8.4
2022-11-04T20:33:11.964Z,8.4
2022-11-04T20:48:21.648Z,8.3
2022-11-04T21:03:30.914Z,10.8
2022-11-04T21:18:40.110Z,10.6
2022-11-04T21:33:49.629Z,11.3
2022-11-04T21:48:59.166Z,11.6
2022-11-04T22:04:08.803Z,11.3
2022-11-04T22:19:18.634Z,11.8
2022-11-04T22:34:28.061Z,12.5
2022-11-04T22:49:38.396Z,12.2
2022-11-04T23:04:48.934Z,12.1
2022-11-04T23:19:58.603Z,12.9
2022-11-04T23:35:08.869Z,11.7
2022-11-04T23:50:18.561Z,10.9
